Time;durP1;ratioP1;P1;durP2;ratioP2;P2;SDS_P1;SDS_P2;PMS_P1;PMS_P2;Temp;Humidity;BMP_temperature;BMP_pressure;BME280_temperature;BME280_humidity;BME280_pressure;Samples;Min_cycle;Max_cycle;Signal;HPM_P1;HPM_P2
2021/03/02 00:00:44;;;;;;;16.30;8.48;;;2.80;70.00;;;;;;4999455;28;20042;-64
2021/03/02 00:03:12;;;;;;;16.52;9.15;;;2.80;70.40;;;;;;5000773;28;20026;-65
2021/03/02 00:05:37;;;;;;;17.50;9.00;;;2.70;70.40;;;;;;4998072;28;20026;-64
2021/03/02 00:08:09;;;;;;;16.05;9.23;;;2.80;70.50;;;;;;4997663;28;20037;-65
2021/03/02 00:10:39;;;;;;;17.27;9.43;;;2.80;70.50;;;;;;4997261;28;20091;-65
2021/03/02 00:13:07;;;;;;;17.88;9.13;;;2.80;70.20;;;;;;4999169;28;20404;-65
2021/03/02 00:15:37;;;;;;;17.50;9.48;;;2.70;70.30;;;;;;4996512;28;20052;-65
2021/03/02 00:18:08;;;;;;;21.30;9.95;;;2.70;70.40;;;;;;5000649;28;20035;-65
2021/03/02 00:20:42;;;;;;;20.02;9.80;;;2.70;70.10;;;;;;4998869;28;20386;-65
2021/03/02 00:23:21;;;;;;;19.92;10.13;;;2.70;70.30;;;;;;4997312;28;20065;-65
2021/03/02 00:25:56;;;;;;;23.58;11.00;;;2.70;70.50;;;;;;4996159;28;20029;-65
2021/03/02 00:28:24;;;;;;;20.17;10.98;;;2.60;70.50;;;;;;4998770;28;20121;-64
2021/03/02 00:30:59;;;;;;;20.08;10.40;;;2.60;70.30;;;;;;4999933;28;20029;-65
2021/03/02 00:33:28;;;;;;;17.63;9.65;;;2.60;70.40;;;;;;4999454;28;20109;-65
2021/03/02 00:35:56;;;;;;;15.23;8.63;;;2.60;70.30;;;;;;4997826;28;20034;-65
2021/03/02 00:38:24;;;;;;;18.75;8.88;;;2.60;70.30;;;;;;4995188;28;20034;-64
2021/03/02 00:40:52;;;;;;;17.58;9.27;;;2.50;70.40;;;;;;4998552;28;20505;-64
2021/03/02 00:43:22;;;;;;;18.33;9.50;;;2.50;70.50;;;;;;4998668;28;20036;-64
2021/03/02 00:45:52;;;;;;;15.18;8.57;;;2.50;70.80;;;;;;4999247;28;20035;-65
2021/03/02 00:48:20;;;;;;;17.65;9.07;;;2.40;70.60;;;;;;4999646;28;20031;-64
2021/03/02 00:50:51;;;;;;;18.15;9.20;;;2.40;70.80;;;;;;4996953;28;20046;-64
2021/03/02 00:53:21;;;;;;;16.45;9.75;;;2.30;71.00;;;;;;4996393;28;20034;-64
2021/03/02 00:55:49;;;;;;;16.90;10.02;;;2.30;71.00;;;;;;4999860;28;20614;-65
2021/03/02 00:58:16;;;;;;;19.50;9.40;;;2.30;71.10;;;;;;4996282;28;20048;-64
2021/03/02 01:00:44;;;;;;;16.52;8.77;;;2.20;71.20;;;;;;4997413;28;20045;-64
2021/03/02 01:03:13;;;;;;;20.35;9.45;;;2.20;71.20;;;;;;4998896;28;20030;-65
2021/03/02 01:05:40;;;;;;;19.80;9.85;;;2.20;71.30;;;;;;4998708;28;20045;-64
2021/03/02 01:08:08;;;;;;;17.10;9.10;;;2.20;71.50;;;;;;4998008;28;20023;-65
2021/03/02 01:10:38;;;;;;;19.13;9.20;;;2.20;71.80;;;;;;4999649;28;20432;-64
2021/03/02 01:13:07;;;;;;;16.95;9.18;;;2.10;71.90;;;;;;4998996;28;20038;-64
2021/03/02 01:15:38;;;;;;;17.77;9.40;;;2.10;71.90;;;;;;4998879;28;20116;-63
2021/03/02 01:18:11;;;;;;;17.48;9.60;;;2.10;71.90;;;;;;4998902;28;20030;-65
2021/03/02 01:20:39;;;;;;;16.42;9.32;;;2.10;72.00;;;;;;5000452;28;20472;-64
2021/03/02 01:23:09;;;;;;;16.15;8.82;;;2.10;72.10;;;;;;4999999;28;20441;-64
2021/03/02 01:25:35;;;;;;;18.77;9.25;;;2.10;72.10;;;;;;4996154;28;20399;-64
2021/03/02 01:28:07;;;;;;;19.50;9.40;;;2.10;72.20;;;;;;4997533;28;20049;-65
2021/03/02 01:30:35;;;;;;;15.95;9.07;;;2.10;72.20;;;;;;4997384;28;20054;-64
2021/03/02 01:33:06;;;;;;;17.92;8.43;;;2.10;72.00;;;;;;5002835;28;20332;-64
2021/03/02 01:35:37;;;;;;;15.80;8.80;;;2.10;72.00;;;;;;4998194;28;20062;-65
2021/03/02 01:38:08;;;;;;;15.50;8.25;;;2.10;71.80;;;;;;4998829;28;20038;-64
2021/03/02 01:40:36;;;;;;;18.63;9.00;;;2.10;71.70;;;;;;4997296;28;20038;-65
2021/03/02 01:43:05;;;;;;;15.07;8.75;;;2.10;71.50;;;;;;5004685;28;20501;-65
2021/03/02 01:45:35;;;;;;;15.73;8.57;;;2.10;71.50;;;;;;4998470;28;20043;-64
2021/03/02 01:48:03;;;;;;;18.70;9.82;;;2.10;71.30;;;;;;4996679;28;20038;-65
2021/03/02 01:50:29;;;;;;;18.08;9.65;;;2.10;71.30;;;;;;4997428;28;20081;-64
2021/03/02 01:52:57;;;;;;;19.40;10.00;;;2.20;71.20;;;;;;4996735;28;20480;-64
2021/03/02 01:55:26;;;;;;;23.20;10.30;;;2.10;71.20;;;;;;4997032;28;20026;-64
2021/03/02 01:57:51;;;;;;;20.83;10.77;;;2.10;71.10;;;;;;5002580;28;20045;-65
2021/03/02 02:00:33;;;;;;;18.83;10.52;;;2.10;71.00;;;;;;4999175;28;20030;-64
2021/03/02 02:03:23;;;;;;;19.80;10.65;;;2.10;71.40;;;;;;4991577;28;20034;-65
2021/03/02 02:06:04;;;;;;;19.48;10.20;;;2.10;71.90;;;;;;5003793;28;20054;-65
2021/03/02 02:09:12;;;;;;;18.17;10.55;;;2.10;71.40;;;;;;5012674;28;20117;-64
2021/03/02 02:12:01;;;;;;;20.35;9.90;;;2.10;71.70;;;;;;4995500;28;20887;-66
2021/03/02 02:14:54;;;;;;;16.10;8.88;;;2.10;71.00;;;;;;5012412;28;20489;-65
2021/03/02 02:17:35;;;;;;;16.88;8.93;;;2.10;70.90;;;;;;4997622;28;20033;-63
2021/03/02 02:20:05;;;;;;;18.02;9.50;;;2.10;70.80;;;;;;4997654;28;20041;-64
2021/03/02 02:23:12;;;;;;;17.90;9.43;;;2.10;70.80;;;;;;4996468;28;20117;-65
2021/03/02 02:26:09;;;;;;;17.38;9.70;;;2.10;71.30;;;;;;4995751;28;20037;-64
2021/03/02 02:28:37;;;;;;;16.65;8.95;;;2.10;70.80;;;;;;5011920;28;20034;-65
2021/03/02 02:31:06;;;;;;;17.60;8.73;;;2.10;70.50;;;;;;4998740;28;20034;-65
2021/03/02 02:33:35;;;;;;;16.38;9.25;;;2.10;70.40;;;;;;4994671;28;20127;-65
2021/03/02 02:36:02;;;;;;;18.67;10.00;;;2.00;70.40;;;;;;4996963;28;20034;-64
2021/03/02 02:38:31;;;;;;;18.63;9.27;;;2.00;70.20;;;;;;4994451;28;20034;-64
2021/03/02 02:40:58;;;;;;;17.00;9.07;;;2.00;70.20;;;;;;4998247;28;20022;-64
2021/03/02 02:43:30;;;;;;;16.92;9.23;;;2.00;70.10;;;;;;4995379;28;20030;-64
2021/03/02 02:46:01;;;;;;;16.83;9.48;;;2.00;70.20;;;;;;4997696;28;20679;-65
2021/03/02 02:48:33;;;;;;;19.38;10.70;;;2.00;70.10;;;;;;4997054;28;20145;-64
2021/03/02 02:51:06;;;;;;;18.77;9.68;;;2.00;70.10;;;;;;4997780;28;20058;-64
2021/03/02 02:53:32;;;;;;;18.63;9.70;;;2.00;70.20;;;;;;4993314;28;20038;-65
2021/03/02 02:56:09;;;;;;;16.70;9.20;;;1.90;70.10;;;;;;4998657;28;20127;-64
2021/03/02 02:58:52;;;;;;;18.00;10.15;;;1.90;70.30;;;;;;5002189;28;20030;-63
2021/03/02 03:01:24;;;;;;;16.75;9.65;;;1.90;70.30;;;;;;5000630;28;20603;-65
2021/03/02 03:04:00;;;;;;;16.90;9.40;;;1.90;70.00;;;;;;5003932;28;20567;-65
2021/03/02 03:06:28;;;;;;;18.23;10.35;;;1.90;70.00;;;;;;5000920;28;20034;-65
2021/03/02 03:08:58;;;;;;;19.30;10.35;;;1.90;70.00;;;;;;4998348;28;20577;-65
2021/03/02 03:11:34;;;;;;;20.10;10.57;;;1.90;70.00;;;;;;4997229;28;20044;-65
2021/03/02 03:14:07;;;;;;;20.52;10.60;;;1.80;70.10;;;;;;5002962;28;20522;-65
2021/03/02 03:16:38;;;;;;;18.13;9.98;;;1.80;70.00;;;;;;4998084;28;20058;-65
2021/03/02 03:19:11;;;;;;;21.23;9.95;;;1.80;70.10;;;;;;5000370;28;20033;-65
2021/03/02 03:21:42;;;;;;;17.70;9.73;;;1.70;70.00;;;;;;5001344;28;20034;-65
2021/03/02 03:24:09;;;;;;;21.20;10.55;;;1.70;70.00;;;;;;4998555;28;20026;-65
2021/03/02 03:26:36;;;;;;;19.63;10.05;;;1.70;69.90;;;;;;4997332;28;20034;-65
2021/03/02 03:29:05;;;;;;;21.05;10.32;;;1.60;70.00;;;;;;4998379;28;20034;-65
2021/03/02 03:31:33;;;;;;;18.60;10.05;;;1.60;70.10;;;;;;5001323;28;20041;-64
2021/03/02 03:34:02;;;;;;;18.85;9.30;;;1.60;70.20;;;;;;5000888;28;20030;-65
2021/03/02 03:36:31;;;;;;;18.20;9.30;;;1.50;70.50;;;;;;4998181;28;20646;-65
2021/03/02 03:38:59;;;;;;;16.38;8.55;;;1.50;71.20;;;;;;4999703;28;20437;-64
2021/03/02 03:41:27;;;;;;;14.27;8.63;;;1.40;71.30;;;;;;5000121;28;20084;-65
2021/03/02 03:43:53;;;;;;;17.20;9.00;;;1.40;71.40;;;;;;4997870;28;20558;-65
2021/03/02 03:46:25;;;;;;;16.63;8.77;;;1.40;71.60;;;;;;5000533;28;20516;-64
2021/03/02 03:48:55;;;;;;;15.65;8.63;;;1.30;72.00;;;;;;4998269;28;20034;-65
2021/03/02 03:51:26;;;;;;;15.00;8.57;;;1.30;72.00;;;;;;5000238;28;20494;-65
2021/03/02 03:53:58;;;;;;;17.70;8.82;;;1.30;72.20;;;;;;4996643;28;20053;-64
2021/03/02 03:56:28;;;;;;;16.38;9.43;;;1.30;71.90;;;;;;5003833;28;20612;-64
2021/03/02 03:59:00;;;;;;;15.38;8.85;;;1.30;72.00;;;;;;4997544;28;20968;-64
2021/03/02 04:01:33;;;;;;;17.00;9.13;;;1.30;72.00;;;;;;4999500;28;20034;-65
2021/03/02 04:04:03;;;;;;;15.75;8.75;;;1.30;72.00;;;;;;4995515;28;20037;-65
2021/03/02 04:06:34;;;;;;;16.65;8.95;;;1.30;72.70;;;;;;5000774;28;20034;-65
2021/03/02 04:09:06;;;;;;;18.15;9.63;;;1.30;71.80;;;;;;4997908;28;20034;-65
2021/03/02 04:11:37;;;;;;;15.95;8.98;;;1.30;71.90;;;;;;4993855;28;20066;-65
2021/03/02 04:14:07;;;;;;;16.48;9.23;;;1.20;72.20;;;;;;4997260;28;20022;-65
2021/03/02 04:16:37;;;;;;;16.25;9.57;;;1.20;72.30;;;;;;4997903;28;20042;-65
2021/03/02 04:19:10;;;;;;;17.80;9.32;;;1.10;72.40;;;;;;4999820;28;20108;-65
2021/03/02 04:21:38;;;;;;;17.02;9.23;;;1.10;72.70;;;;;;5000659;28;20034;-65
2021/03/02 04:24:08;;;;;;;17.85;8.93;;;1.10;72.70;;;;;;4996598;28;20045;-65
2021/03/02 04:26:38;;;;;;;16.08;8.57;;;1.10;72.80;;;;;;4994943;28;20041;-65
2021/03/02 04:29:06;;;;;;;14.93;8.73;;;1.10;72.90;;;;;;4997458;28;20077;-65
2021/03/02 04:31:34;;;;;;;15.07;8.52;;;1.10;72.70;;;;;;4998856;28;20072;-65
2021/03/02 04:34:04;;;;;;;16.98;8.60;;;1.10;72.60;;;;;;4998848;28;20030;-65
2021/03/02 04:36:30;;;;;;;16.10;8.93;;;1.10;72.40;;;;;;4999592;28;20053;-65
2021/03/02 04:39:00;;;;;;;15.82;9.05;;;1.10;72.40;;;;;;4996982;28;20057;-65
2021/03/02 04:41:28;;;;;;;14.30;8.57;;;1.10;72.80;;;;;;4992810;28;20026;-65
2021/03/02 04:44:01;;;;;;;15.30;8.43;;;1.10;72.70;;;;;;4994129;28;20057;-64
2021/03/02 04:46:29;;;;;;;16.58;9.02;;;1.10;72.70;;;;;;4997976;28;20428;-63
2021/03/02 04:48:59;;;;;;;15.60;8.50;;;1.00;72.60;;;;;;5002672;28;20041;-65
2021/03/02 04:51:32;;;;;;;15.88;9.20;;;1.10;72.60;;;;;;4998330;28;20034;-65
2021/03/02 04:54:04;;;;;;;16.55;9.18;;;1.10;72.40;;;;;;4996754;28;20038;-64
2021/03/02 04:56:34;;;;;;;16.02;9.43;;;1.10;72.20;;;;;;4994685;28;20026;-64
2021/03/02 04:59:02;;;;;;;18.38;9.82;;;1.10;72.00;;;;;;4998247;28;20413;-64
2021/03/02 05:01:32;;;;;;;15.65;8.73;;;1.10;72.00;;;;;;5000768;28;20076;-65
2021/03/02 05:03:58;;;;;;;16.05;8.95;;;1.10;72.00;;;;;;4998826;28;20049;-65
2021/03/02 05:06:26;;;;;;;17.80;8.45;;;1.10;72.10;;;;;;4997080;28;20034;-65
2021/03/02 05:08:54;;;;;;;17.20;9.40;;;1.00;72.00;;;;;;4998155;28;20037;-65
2021/03/02 05:11:25;;;;;;;17.48;10.05;;;1.10;72.00;;;;;;4997804;28;20038;-65
2021/03/02 05:13:57;;;;;;;16.98;9.02;;;1.10;71.90;;;;;;4999861;28;20267;-65
2021/03/02 05:16:25;;;;;;;17.08;9.95;;;1.00;71.90;;;;;;4999571;28;20061;-65
2021/03/02 05:18:58;;;;;;;18.58;10.45;;;1.00;71.80;;;;;;4999051;28;20121;-66
2021/03/02 05:21:25;;;;;;;18.48;9.77;;;1.00;71.70;;;;;;4999353;28;20129;-65
2021/03/02 05:23:51;;;;;;;16.25;9.43;;;1.00;71.70;;;;;;4998848;28;20038;-65
2021/03/02 05:26:21;;;;;;;16.45;9.77;;;1.00;72.10;;;;;;4996827;28;20382;-65
2021/03/02 05:28:50;;;;;;;20.23;10.95;;;0.90;72.10;;;;;;4996171;28;20042;-65
2021/03/02 05:31:15;;;;;;;19.25;10.27;;;0.90;72.00;;;;;;4997170;28;20030;-65
2021/03/02 05:33:43;;;;;;;19.73;10.38;;;0.90;72.20;;;;;;4998780;28;20118;-66
2021/03/02 05:36:09;;;;;;;17.38;9.55;;;0.90;72.60;;;;;;4999040;28;20030;-65
2021/03/02 05:38:37;;;;;;;19.13;10.85;;;0.90;72.40;;;;;;4996474;28;20035;-65
2021/03/02 05:41:07;;;;;;;16.48;10.10;;;0.90;72.30;;;;;;5004809;28;20037;-66
2021/03/02 05:43:35;;;;;;;18.95;9.82;;;0.90;72.20;;;;;;4999969;28;20064;-65
2021/03/02 05:46:03;;;;;;;15.68;9.23;;;0.80;72.10;;;;;;4998932;28;20034;-66
2021/03/02 05:48:34;;;;;;;15.65;9.18;;;0.80;72.40;;;;;;4997204;28;20030;-65
2021/03/02 05:51:02;;;;;;;18.00;9.35;;;0.80;72.70;;;;;;4999520;28;20120;-65
2021/03/02 05:53:30;;;;;;;19.90;10.68;;;0.80;72.70;;;;;;4998734;28;20061;-65
2021/03/02 05:55:58;;;;;;;20.10;10.63;;;0.80;72.80;;;;;;4997396;28;20048;-65
2021/03/02 05:58:24;;;;;;;17.75;10.73;;;0.70;72.80;;;;;;4998174;28;20019;-65
2021/03/02 06:00:58;;;;;;;23.65;10.77;;;0.80;72.70;;;;;;4997265;28;20026;-66
2021/03/02 06:03:26;;;;;;;20.85;11.00;;;0.70;72.50;;;;;;4999099;28;20030;-65
2021/03/02 06:05:59;;;;;;;19.40;10.43;;;0.70;72.40;;;;;;4998905;28;20038;-66
2021/03/02 06:08:24;;;;;;;22.52;11.93;;;0.70;72.20;;;;;;4997053;28;20026;-65
2021/03/02 06:10:54;;;;;;;22.60;11.38;;;0.80;72.20;;;;;;4997351;28;20034;-65
2021/03/02 06:13:33;;;;;;;20.35;11.57;;;0.80;72.30;;;;;;4998446;28;20104;-65
2021/03/02 06:16:06;;;;;;;19.70;11.38;;;0.70;72.30;;;;;;4999288;28;20042;-65
2021/03/02 06:18:34;;;;;;;27.77;11.88;;;0.70;72.00;;;;;;4997215;28;20030;-65
2021/03/02 06:21:17;;;;;;;23.77;11.07;;;0.70;72.00;;;;;;4998979;28;20329;-65
2021/03/02 06:23:54;;;;;;;24.08;11.57;;;0.80;72.40;;;;;;4999238;28;20034;-65
2021/03/02 06:26:28;;;;;;;21.13;11.02;;;0.80;72.20;;;;;;4998874;28;20077;-65
2021/03/02 06:29:01;;;;;;;27.88;12.60;;;0.80;72.00;;;;;;4997196;28;20034;-65
2021/03/02 06:31:40;;;;;;;22.17;12.10;;;0.80;72.00;;;;;;4997352;28;20042;-65
2021/03/02 06:34:07;;;;;;;24.13;12.35;;;0.80;72.50;;;;;;5014179;28;20022;-65
2021/03/02 06:36:33;;;;;;;23.52;11.65;;;0.70;72.20;;;;;;5001678;28;20030;-65
2021/03/02 06:39:31;;;;;;;21.02;11.18;;;0.70;72.50;;;;;;5002323;28;20034;-65
2021/03/02 06:42:20;;;;;;;24.02;12.35;;;0.70;73.10;;;;;;4999744;28;20034;-65
2021/03/02 06:44:51;;;;;;;30.20;12.35;;;0.70;72.90;;;;;;5001574;28;20030;-65
2021/03/02 06:47:40;;;;;;;22.50;12.40;;;0.70;72.60;;;;;;5002631;28;20038;-66
2021/03/02 06:50:17;;;;;;;21.60;10.55;;;0.70;73.40;;;;;;5001417;28;20112;-65
2021/03/02 06:52:45;;;;;;;30.30;13.15;;;0.70;73.10;;;;;;5000836;28;20343;-65
2021/03/02 06:55:26;;;;;;;26.17;11.43;;;0.70;72.80;;;;;;5003091;28;20045;-65
2021/03/02 06:58:14;;;;;;;27.95;14.15;;;0.70;73.30;;;;;;5002283;28;20039;-65
2021/03/02 07:00:49;;;;;;;35.50;15.60;;;0.80;73.10;;;;;;5000027;28;20062;-65
2021/03/02 07:03:33;;;;;;;39.20;19.10;;;0.80;73.30;;;;;;5001725;28;20052;-65
2021/03/02 07:06:08;;;;;;;37.95;18.08;;;0.90;73.90;;;;;;5002332;28;20565;-65
2021/03/02 07:08:36;;;;;;;31.48;14.30;;;0.90;73.30;;;;;;4997453;28;20034;-65
2021/03/02 07:11:03;;;;;;;25.15;14.55;;;0.90;73.30;;;;;;4999126;28;20117;-65
2021/03/02 07:13:34;;;;;;;30.52;16.13;;;1.00;73.50;;;;;;5001871;28;20605;-65
2021/03/02 07:16:03;;;;;;;30.95;16.63;;;1.00;73.70;;;;;;5002501;28;20048;-65
2021/03/02 07:18:33;;;;;;;34.15;15.55;;;1.00;73.70;;;;;;5001303;28;20022;-65
2021/03/02 07:21:00;;;;;;;29.58;14.90;;;1.10;74.00;;;;;;5002246;28;20034;-64
2021/03/02 07:23:33;;;;;;;25.35;12.68;;;1.10;74.20;;;;;;5002595;28;20034;-65
2021/03/02 07:26:04;;;;;;;27.75;13.82;;;1.20;74.50;;;;;;5002639;28;20026;-65
2021/03/02 07:28:35;;;;;;;25.42;13.88;;;1.30;74.40;;;;;;5000870;28;20505;-65
2021/03/02 07:31:03;;;;;;;32.13;14.38;;;1.30;74.60;;;;;;5000044;28;20322;-64
2021/03/02 07:33:32;;;;;;;35.72;15.68;;;1.40;74.50;;;;;;5001737;28;20026;-65
2021/03/02 07:35:58;;;;;;;31.48;14.82;;;1.50;74.60;;;;;;5007540;28;20038;-65
2021/03/02 07:38:29;;;;;;;40.33;16.92;;;1.50;75.60;;;;;;4999273;28;20042;-65
2021/03/02 07:40:58;;;;;;;33.17;16.20;;;1.60;75.10;;;;;;5001622;28;20035;-65
2021/03/02 07:43:31;;;;;;;35.03;16.00;;;1.60;75.20;;;;;;5001285;28;20041;-65
2021/03/02 07:45:58;;;;;;;33.35;15.88;;;1.70;75.50;;;;;;5000991;28;20113;-65
2021/03/02 07:48:36;;;;;;;30.02;15.02;;;1.80;75.40;;;;;;4999106;28;20032;-64
2021/03/02 07:51:12;;;;;;;28.52;15.10;;;1.90;76.00;;;;;;4999600;28;20042;-65
2021/03/02 07:53:41;;;;;;;31.35;15.27;;;2.00;76.00;;;;;;4999332;28;20038;-65
2021/03/02 07:56:15;;;;;;;25.10;15.13;;;2.10;75.50;;;;;;5000472;28;20038;-65
2021/03/02 07:58:43;;;;;;;25.13;14.40;;;2.20;76.00;;;;;;5000515;28;20045;-65
2021/03/02 08:01:27;;;;;;;24.75;14.50;;;2.30;75.90;;;;;;5014801;28;20026;-66
2021/03/02 08:04:18;;;;;;;25.92;14.70;;;2.40;76.60;;;;;;4995004;28;20120;-64
2021/03/02 08:06:50;;;;;;;26.75;14.38;;;2.50;76.90;;;;;;4998444;28;20044;-65
2021/03/02 08:09:24;;;;;;;29.88;14.27;;;2.60;75.90;;;;;;4998189;28;20561;-65
2021/03/02 08:12:15;;;;;;;28.25;13.90;;;2.70;76.60;;;;;;4999624;28;20477;-65
2021/03/02 08:14:45;;;;;;;26.55;13.73;;;2.70;76.20;;;;;;5000426;28;20477;-65
2021/03/02 08:17:21;;;;;;;27.25;14.35;;;2.90;76.30;;;;;;5001165;28;20388;-65
2021/03/02 08:20:08;;;;;;;27.40;14.43;;;3.00;76.80;;;;;;5001120;28;20037;-65
2021/03/02 08:22:47;;;;;;;24.08;13.25;;;3.10;77.00;;;;;;5000699;28;20349;-64
2021/03/02 08:25:27;;;;;;;23.33;13.93;;;3.20;76.40;;;;;;5007022;28;20041;-64
2021/03/02 08:27:59;;;;;;;27.63;15.25;;;3.30;76.70;;;;;;5000173;28;20493;-65
2021/03/02 08:30:34;;;;;;;29.67;15.73;;;3.40;76.40;;;;;;5000048;28;20030;-64
2021/03/02 08:33:05;;;;;;;19.77;10.93;;;3.50;76.90;;;;;;4999645;28;20125;-64
2021/03/02 08:35:36;;;;;;;28.98;15.90;;;3.60;77.10;;;;;;5000282;28;20093;-64
2021/03/02 08:38:09;;;;;;;27.75;15.68;;;3.70;77.40;;;;;;4998068;28;20039;-64
2021/03/02 08:40:40;;;;;;;25.85;14.82;;;3.70;77.40;;;;;;5000051;28;20034;-64
2021/03/02 08:43:17;;;;;;;28.05;14.80;;;3.80;77.10;;;;;;5000247;28;20034;-64
2021/03/02 08:45:55;;;;;;;24.40;13.80;;;3.90;77.10;;;;;;5015821;28;20030;-65
2021/03/02 08:48:33;;;;;;;28.08;15.25;;;4.00;77.30;;;;;;4998942;28;20070;-63
2021/03/02 08:51:08;;;;;;;23.45;13.73;;;4.10;77.40;;;;;;5000887;28;20406;-65
2021/03/02 08:53:38;;;;;;;26.05;15.18;;;4.10;76.70;;;;;;4999899;28;20022;-65
2021/03/02 08:56:21;;;;;;;22.70;13.93;;;4.20;76.70;;;;;;4999621;28;20044;-65
2021/03/02 08:58:54;;;;;;;23.52;14.25;;;4.30;76.60;;;;;;5003638;28;20026;-64
2021/03/02 09:01:28;;;;;;;26.88;15.25;;;4.40;76.70;;;;;;4999543;28;20040;-65
2021/03/02 09:04:13;;;;;;;23.92;13.88;;;4.40;76.30;;;;;;5000463;28;20034;-65
2021/03/02 09:06:42;;;;;;;23.50;14.65;;;4.50;76.50;;;;;;5014868;28;20489;-65
2021/03/02 09:09:12;;;;;;;26.75;13.82;;;4.60;76.00;;;;;;5000020;28;20030;-65
2021/03/02 09:11:43;;;;;;;21.83;14.05;;;4.70;76.40;;;;;;5011920;28;20451;-65
2021/03/02 09:14:25;;;;;;;23.83;13.15;;;4.70;76.00;;;;;;4999448;28;20041;-65
2021/03/02 09:17:02;;;;;;;25.83;13.70;;;4.80;76.20;;;;;;5000400;28;20027;-65
2021/03/02 09:19:32;;;;;;;23.25;13.15;;;4.90;76.70;;;;;;4999016;28;20029;-65
2021/03/02 09:22:12;;;;;;;24.17;14.27;;;4.90;75.50;;;;;;4999630;28;20034;-65
2021/03/02 09:24:44;;;;;;;22.17;13.50;;;5.00;75.60;;;;;;4999784;28;20030;-65
2021/03/02 09:27:20;;;;;;;24.40;14.40;;;5.10;75.50;;;;;;5000236;28;20034;-65
2021/03/02 09:29:54;;;;;;;26.48;14.32;;;5.20;75.30;;;;;;4999018;28;20117;-65
2021/03/02 09:32:28;;;;;;;23.90;14.90;;;5.30;75.30;;;;;;4997516;28;20494;-65
2021/03/02 09:35:01;;;;;;;23.98;15.40;;;5.40;75.50;;;;;;4998970;28;20040;-65
2021/03/02 09:37:29;;;;;;;27.88;15.90;;;5.50;75.20;;;;;;4999177;28;20045;-65
2021/03/02 09:39:57;;;;;;;25.38;16.15;;;5.50;75.40;;;;;;4999092;28;20034;-65
2021/03/02 09:42:36;;;;;;;26.00;15.80;;;5.60;75.50;;;;;;4999195;28;20042;-65
2021/03/02 09:45:13;;;;;;;28.58;15.95;;;5.70;75.90;;;;;;5013567;28;20501;-64
2021/03/02 09:47:42;;;;;;;26.15;14.75;;;5.70;75.30;;;;;;4999397;28;20650;-65
2021/03/02 09:50:20;;;;;;;24.50;14.73;;;5.80;75.20;;;;;;4999433;28;20066;-64
2021/03/02 09:52:55;;;;;;;28.65;15.70;;;5.90;75.20;;;;;;4999126;28;20118;-64
2021/03/02 09:55:33;;;;;;;;;;;6.00;75.00;;;;;;4996741;28;20061;-65
2021/03/02 09:58:12;;;;;;;24.13;14.35;;;6.10;75.60;;;;;;4998191;28;20301;-65
2021/03/02 10:00:55;;;;;;;24.55;15.18;;;6.10;74.60;;;;;;4997675;28;20059;-65
2021/03/02 10:03:26;;;;;;;22.98;14.60;;;6.20;74.80;;;;;;4998215;28;20517;-65
2021/03/02 10:05:57;;;;;;;24.23;15.35;;;6.30;74.40;;;;;;4999332;28;20083;-65
2021/03/02 10:08:34;;;;;;;26.27;15.30;;;6.50;74.30;;;;;;4996353;28;20030;-64
2021/03/02 10:11:14;;;;;;;25.33;16.25;;;6.50;74.50;;;;;;4998652;28;20120;-65
2021/03/02 10:14:05;;;;;;;30.05;16.17;;;6.70;74.90;;;;;;4998352;28;20038;-65
2021/03/02 10:16:39;;;;;;;29.90;17.25;;;6.80;74.60;;;;;;4998973;28;20505;-65
2021/03/02 10:19:25;;;;;;;28.58;16.38;;;6.90;74.40;;;;;;4999285;28;20035;-65
2021/03/02 10:21:58;;;;;;;29.02;17.45;;;7.00;74.20;;;;;;4999593;28;20049;-65
2021/03/02 10:24:38;;;;;;;28.50;17.17;;;7.10;74.20;;;;;;4996144;28;20456;-65
2021/03/02 10:27:14;;;;;;;26.33;17.52;;;7.20;73.90;;;;;;4999212;28;20489;-65
2021/03/02 10:29:46;;;;;;;25.67;16.65;;;7.30;73.80;;;;;;4997064;28;20068;-64
2021/03/02 10:32:17;;;;;;;27.88;17.48;;;7.40;73.60;;;;;;4997505;28;20144;-65
2021/03/02 10:34:45;;;;;;;27.40;15.70;;;7.50;73.40;;;;;;4997657;28;20493;-65
2021/03/02 10:37:16;;;;;;;25.08;16.17;;;7.60;73.00;;;;;;4998302;28;20030;-65
2021/03/02 10:39:41;;;;;;;26.83;16.67;;;7.60;72.80;;;;;;5013227;28;20039;-65
2021/03/02 10:42:13;;;;;;;28.25;16.63;;;7.80;72.70;;;;;;4997388;28;20033;-65
2021/03/02 10:44:44;;;;;;;27.27;16.35;;;7.80;72.40;;;;;;4997754;28;20030;-65
2021/03/02 10:47:11;;;;;;;29.85;18.13;;;8.00;72.50;;;;;;4998909;28;20034;-65
2021/03/02 10:49:39;;;;;;;26.45;17.33;;;8.10;72.40;;;;;;4997710;28;20523;-65
2021/03/02 10:52:07;;;;;;;27.95;16.38;;;8.10;72.20;;;;;;4999076;28;20532;-65
2021/03/02 10:54:33;;;;;;;27.15;15.70;;;8.20;72.10;;;;;;4999016;28;20108;-65
2021/03/02 10:57:03;;;;;;;27.25;16.52;;;8.30;72.10;;;;;;4999110;28;20042;-65
2021/03/02 10:59:29;;;;;;;25.27;16.13;;;8.50;72.10;;;;;;4996961;28;20038;-65
2021/03/02 11:01:59;;;;;;;28.45;16.15;;;8.60;71.90;;;;;;4998416;28;20505;-65
2021/03/02 11:04:27;;;;;;;22.55;14.63;;;8.70;71.60;;;;;;4996451;28;20409;-66
2021/03/02 11:06:57;;;;;;;26.65;15.93;;;8.80;71.10;;;;;;5003693;28;20048;-65
2021/03/02 11:09:27;;;;;;;23.83;15.50;;;9.00;70.90;;;;;;4997683;28;20042;-65
2021/03/02 11:11:57;;;;;;;23.17;14.80;;;9.10;70.50;;;;;;4996356;28;20066;-65
2021/03/02 11:14:25;;;;;;;22.13;14.18;;;9.30;70.30;;;;;;4997419;28;20023;-66
2021/03/02 11:16:53;;;;;;;25.10;14.73;;;9.40;69.80;;;;;;4997846;28;20452;-65
2021/03/02 11:19:19;;;;;;;22.38;14.57;;;9.60;70.30;;;;;;4997513;28;20418;-66
2021/03/02 11:21:47;;;;;;;20.05;13.65;;;9.70;69.00;;;;;;5001028;28;20057;-66
2021/03/02 11:24:15;;;;;;;31.38;15.02;;;9.80;68.60;;;;;;4999993;28;20259;-66
2021/03/02 11:26:41;;;;;;;21.85;13.93;;;9.90;67.80;;;;;;5001768;28;20160;-65
2021/03/02 11:29:08;;;;;;;21.88;14.15;;;9.90;67.70;;;;;;5001905;28;20556;-66
2021/03/02 11:31:38;;;;;;;22.83;15.02;;;10.00;67.50;;;;;;5002337;28;20452;-66
2021/03/02 11:34:09;;;;;;;21.88;14.25;;;10.10;67.20;;;;;;5001653;28;20118;-66
2021/03/02 11:36:37;;;;;;;20.40;13.85;;;10.20;66.80;;;;;;5001485;28;20096;-66
2021/03/02 11:39:05;;;;;;;21.58;14.65;;;10.30;66.60;;;;;;4997731;28;20672;-66
2021/03/02 11:41:33;;;;;;;23.77;14.50;;;10.30;66.40;;;;;;5001296;28;20358;-66
2021/03/02 11:44:00;;;;;;;20.73;14.70;;;10.40;66.40;;;;;;5002213;28;20045;-65
2021/03/02 11:46:28;;;;;;;20.27;14.80;;;10.50;66.40;;;;;;5001716;28;20502;-66
2021/03/02 11:48:59;;;;;;;21.23;13.75;;;10.60;66.00;;;;;;5001857;28;20041;-65
2021/03/02 11:51:29;;;;;;;22.80;14.73;;;10.70;65.90;;;;;;5001550;28;20069;-66
2021/03/02 11:53:59;;;;;;;20.67;15.02;;;10.80;65.70;;;;;;5001233;28;20121;-66
2021/03/02 11:56:27;;;;;;;21.92;14.27;;;10.90;65.30;;;;;;4999400;28;20030;-65
2021/03/02 11:58:55;;;;;;;18.83;14.05;;;11.00;65.20;;;;;;5000855;28;20603;-66
2021/03/02 12:01:23;;;;;;;22.20;14.25;;;11.10;64.60;;;;;;5001722;28;20026;-66
2021/03/02 12:03:51;;;;;;;25.33;14.68;;;11.20;64.40;;;;;;5000729;28;20034;-66
2021/03/02 12:06:23;;;;;;;18.65;13.55;;;11.20;64.00;;;;;;5000444;28;20042;-66
2021/03/02 12:08:51;;;;;;;19.20;13.43;;;11.40;63.80;;;;;;5000278;28;20038;-66
2021/03/02 12:11:18;;;;;;;21.63;13.27;;;11.50;63.80;;;;;;4997092;28;20085;-66
2021/03/02 12:13:48;;;;;;;19.20;13.30;;;11.50;63.60;;;;;;5000235;28;20400;-66
2021/03/02 12:16:16;;;;;;;22.10;14.20;;;11.60;63.20;;;;;;5001023;28;20030;-66
2021/03/02 12:18:44;;;;;;;20.38;13.18;;;11.70;63.10;;;;;;5000451;28;20034;-66
2021/03/02 12:21:14;;;;;;;16.92;12.52;;;11.90;62.60;;;;;;5001823;28;20026;-66
2021/03/02 12:23:42;;;;;;;16.98;12.48;;;12.00;62.60;;;;;;5001314;28;20722;-66
2021/03/02 12:26:07;;;;;;;22.63;13.23;;;12.10;62.20;;;;;;5001764;28;20033;-66
2021/03/02 12:28:33;;;;;;;20.13;13.20;;;12.10;62.10;;;;;;4997741;28;20061;-66
2021/03/02 12:31:01;;;;;;;24.70;12.73;;;12.30;61.90;;;;;;5000496;28;20512;-66
2021/03/02 12:33:29;;;;;;;19.67;12.70;;;12.40;61.70;;;;;;4999077;28;20041;-66
2021/03/02 12:35:56;;;;;;;19.58;12.20;;;12.50;61.30;;;;;;5005032;28;20073;-66
2021/03/02 12:38:26;;;;;;;18.73;12.30;;;12.60;60.80;;;;;;4998714;28;20046;-66
2021/03/02 12:40:54;;;;;;;21.50;13.02;;;12.70;60.30;;;;;;4998640;28;20131;-66
2021/03/02 12:43:21;;;;;;;27.08;13.52;;;12.80;60.20;;;;;;5000919;28;20029;-66
2021/03/02 12:45:49;;;;;;;15.52;12.05;;;12.90;59.70;;;;;;5000361;28;20441;-66
2021/03/02 12:48:17;;;;;;;18.50;12.38;;;12.90;59.40;;;;;;5000238;28;20098;-66
2021/03/02 12:50:43;;;;;;;16.55;12.02;;;13.00;58.80;;;;;;4999378;28;20405;-65
2021/03/02 12:53:13;;;;;;;16.23;11.95;;;13.00;58.30;;;;;;5000538;28;20627;-65
2021/03/02 12:55:41;;;;;;;18.98;12.65;;;13.10;58.10;;;;;;5001257;28;20041;-66
2021/03/02 12:58:09;;;;;;;19.52;13.57;;;13.10;58.10;;;;;;4997832;28;20038;-65
2021/03/02 13:00:39;;;;;;;17.67;12.85;;;13.10;57.80;;;;;;4998402;28;20137;-66
2021/03/02 13:03:09;;;;;;;17.15;12.43;;;13.10;57.60;;;;;;5000465;28;20641;-66